Bloomington, IN

02:14 PM EST on martie 01, 2015 (GMT -0500)
Columbus Municipal | Change Station
CLOSE
Current Station
Aeroport
Location: Columbus,
Elevation: 656 ft
Nearby Weather Stations
Consiliere activă: Winter Weather Advisory Anunţuri active: Local Storm Report

Elev 656 ft 39.26 °N, 85.90 °W | Updated 24 minutes ago

Ceaţă
Ceaţă
30 °F
Feels Like 30 °F
N
0
Vânt variabil Vânt from nord

astăzi
High -- | Low -- °F
--% Chance of Precip.
Ieri
High -- | Low -- °F
Precip. -- inch
7:18 AM 6:38 PM
Lună în creştere, 86% visible
Presiunea 30.30 inch
Vizibilitatea 1.5 mile
Nori Cer acoperit 500 ft
Punctul de rouă 28 °F
Umiditatea 93%
Precipitaţii 0.00 inch
Adâncimea zăpezii Not available.
UV 2 out of 12
Pollen .60 out of 12
Calitatea aerului Not available.
Flu Activity Not available.
METAR KBAK 011850Z 00000KT 1 1/2SM OVC005 M01/M02 A3030

More Conditions Fewer Conditions

Presiunea 30.30 inch
Vizibilitatea 1.5 mile
Nori Cer acoperit 500 ft
Punctul de rouă 28 °F
Umiditatea 93%
Precipitaţii 0.00 inch
Adâncimea zăpezii Not available.
UV 2 out of 12
Pollen .60 out of 12
Calitatea aerului Not available.
Flu Activity Not available.
METAR KBAK 011850Z 00000KT 1 1/2SM OVC005 M01/M02 A3030

More Conditions Fewer Conditions

10-Day Weather Forecast

Almanac

Astronomie

Mar. 01, 2015 Răsărit Apus
Timpul Actual
Crepusculul Civil
Crepusculul nautic
Răsărit Astronomic
Luna
Durata zilei lumină
Lungimea zilei
Tomorrow will be .
, % of the Moon is Illuminated

Extremele de azi

State Highs State Lows

Community

WunderPhotos

Upload Photos

1,801,491 photos uploaded!

WunderBlogs® & News

Nearby

Calitatea aerului

  Calitatea aerului Index de calitate a aerului Poluat
Not available.

Adâncimea zapezii

Station Depth Elevation

Earthquake Activity

Oraş Distance Mag. Time & Date
Minimum magnitude displayed is 2.5.

Coastal Water Temperatures

Locul Temperatura

Nearby Weather Stations

Winter Weather Advisory
Statement as of 01:12 PM EST on martie 01, 2015

... Winter Weather Advisory remains in effect until 7 PM EST this
evening...

A Winter Weather Advisory remains in effect until 7 PM EST this
evening.

* Timing... accumulating snow will wind down this afternoon. Snow may
mix with freezing rain... and rain later today... especially
south of a Sullivan to Bloomington to Columbus line.

* Main impact... hazardous travel conditions due to accumulating
snow and light icing.

* Other impacts... reduced visibility in areas of heavier snow.

Precautionary/preparedness actions...

A Winter Weather Advisory means that periods of snow... sleet... or
freezing rain will cause travel difficulties. Be prepared for
slippery roads and limited visibilities... and use caution while
driving.